sensor_id;sensor_type;location;lat;lon;timestamp;P1;durP1;ratioP1;P2;durP2;ratioP2
60819;SDS011;46641;48.904;9.126;2023-12-20T00:04:48;2.08;;;1.92;;
60819;SDS011;46641;48.904;9.126;2023-12-20T00:09:38;2.23;;;1.97;;
60819;SDS011;46641;48.904;9.126;2023-12-20T00:14:29;2.22;;;2.03;;
60819;SDS011;46641;48.904;9.126;2023-12-20T00:19:19;2.42;;;2.17;;
60819;SDS011;46641;48.904;9.126;2023-12-20T00:24:09;2.23;;;2.03;;
60819;SDS011;46641;48.904;9.126;2023-12-20T00:29:00;2.45;;;2.25;;
60819;SDS011;46641;48.904;9.126;2023-12-20T00:33:50;2.40;;;2.20;;
60819;SDS011;46641;48.904;9.126;2023-12-20T00:38:40;4.15;;;2.55;;
60819;SDS011;46641;48.904;9.126;2023-12-20T00:43:31;2.50;;;2.30;;
60819;SDS011;46641;48.904;9.126;2023-12-20T00:48:21;2.50;;;1.80;;
60819;SDS011;46641;48.904;9.126;2023-12-20T00:53:11;2.17;;;1.95;;
60819;SDS011;46641;48.904;9.126;2023-12-20T00:58:02;1.93;;;1.83;;
60819;SDS011;46641;48.904;9.126;2023-12-20T01:02:52;2.30;;;2.10;;
60819;SDS011;46641;48.904;9.126;2023-12-20T01:07:42;3.00;;;2.10;;
60819;SDS011;46641;48.904;9.126;2023-12-20T01:12:33;2.38;;;2.00;;
60819;SDS011;46641;48.904;9.126;2023-12-20T01:17:23;2.33;;;2.00;;
60819;SDS011;46641;48.904;9.126;2023-12-20T01:22:13;2.40;;;2.20;;
60819;SDS011;46641;48.904;9.126;2023-12-20T01:27:04;2.95;;;2.55;;
60819;SDS011;46641;48.904;9.126;2023-12-20T01:31:54;2.43;;;2.23;;
60819;SDS011;46641;48.904;9.126;2023-12-20T01:36:44;2.70;;;2.30;;
60819;SDS011;46641;48.904;9.126;2023-12-20T01:41:34;2.42;;;2.22;;
60819;SDS011;46641;48.904;9.126;2023-12-20T01:46:25;2.40;;;2.10;;
60819;SDS011;46641;48.904;9.126;2023-12-20T01:51:15;2.33;;;2.13;;
60819;SDS011;46641;48.904;9.126;2023-12-20T01:56:06;2.53;;;2.33;;
60819;SDS011;46641;48.904;9.126;2023-12-20T02:00:57;3.23;;;2.00;;
60819;SDS011;46641;48.904;9.126;2023-12-20T02:05:48;2.70;;;2.50;;
60819;SDS011;46641;48.904;9.126;2023-12-20T02:10:38;4.30;;;2.47;;
60819;SDS011;46641;48.904;9.126;2023-12-20T02:15:30;2.67;;;2.13;;
60819;SDS011;46641;48.904;9.126;2023-12-20T02:20:21;2.60;;;2.40;;
60819;SDS011;46641;48.904;9.126;2023-12-20T02:25:11;2.00;;;1.90;;
60819;SDS011;46641;48.904;9.126;2023-12-20T02:30:01;2.75;;;1.63;;
60819;SDS011;46641;48.904;9.126;2023-12-20T02:34:53;1.70;;;1.60;;
60819;SDS011;46641;48.904;9.126;2023-12-20T02:39:45;1.10;;;1.10;;
60819;SDS011;46641;48.904;9.126;2023-12-20T02:44:35;0.90;;;0.90;;
60819;SDS011;46641;48.904;9.126;2023-12-20T02:49:26;0.80;;;0.80;;
60819;SDS011;46641;48.904;9.126;2023-12-20T02:54:16;0.88;;;0.88;;
60819;SDS011;46641;48.904;9.126;2023-12-20T02:59:06;0.80;;;0.80;;
60819;SDS011;46641;48.904;9.126;2023-12-20T03:03:58;0.87;;;0.87;;
60819;SDS011;46641;48.904;9.126;2023-12-20T03:08:48;0.70;;;0.70;;
60819;SDS011;46641;48.904;9.126;2023-12-20T03:13:39;1.27;;;0.60;;
60819;SDS011;46641;48.904;9.126;2023-12-20T03:18:29;0.63;;;0.63;;
60819;SDS011;46641;48.904;9.126;2023-12-20T03:23:19;0.70;;;0.70;;
60819;SDS011;46641;48.904;9.126;2023-12-20T03:28:09;0.60;;;0.60;;
60819;SDS011;46641;48.904;9.126;2023-12-20T03:33:00;1.30;;;1.20;;
60819;SDS011;46641;48.904;9.126;2023-12-20T03:37:50;1.00;;;0.90;;
60819;SDS011;46641;48.904;9.126;2023-12-20T03:42:40;0.80;;;0.80;;
60819;SDS011;46641;48.904;9.126;2023-12-20T03:47:31;0.90;;;0.90;;
60819;SDS011;46641;48.904;9.126;2023-12-20T03:52:21;0.70;;;0.70;;
60819;SDS011;46641;48.904;9.126;2023-12-20T03:57:11;0.63;;;0.63;;
60819;SDS011;46641;48.904;9.126;2023-12-20T04:02:02;0.70;;;0.70;;
60819;SDS011;46641;48.904;9.126;2023-12-20T04:06:53;0.77;;;0.77;;
60819;SDS011;46641;48.904;9.126;2023-12-20T04:11:43;0.90;;;0.90;;
60819;SDS011;46641;48.904;9.126;2023-12-20T04:16:34;0.70;;;0.70;;
60819;SDS011;46641;48.904;9.126;2023-12-20T04:21:24;0.90;;;0.90;;
60819;SDS011;46641;48.904;9.126;2023-12-20T04:26:14;0.70;;;0.70;;
60819;SDS011;46641;48.904;9.126;2023-12-20T04:31:05;0.70;;;0.70;;
60819;SDS011;46641;48.904;9.126;2023-12-20T04:35:55;0.63;;;0.63;;
60819;SDS011;46641;48.904;9.126;2023-12-20T04:40:45;0.73;;;0.73;;
60819;SDS011;46641;48.904;9.126;2023-12-20T04:45:35;1.03;;;0.80;;
60819;SDS011;46641;48.904;9.126;2023-12-20T04:50:26;0.80;;;0.80;;
60819;SDS011;46641;48.904;9.126;2023-12-20T04:55:16;0.90;;;0.90;;
60819;SDS011;46641;48.904;9.126;2023-12-20T05:00:07;0.88;;;0.88;;
60819;SDS011;46641;48.904;9.126;2023-12-20T05:05:00;0.50;;;0.50;;
60819;SDS011;46641;48.904;9.126;2023-12-20T05:09:50;1.00;;;0.80;;
60819;SDS011;46641;48.904;9.126;2023-12-20T05:14:41;1.17;;;1.10;;
60819;SDS011;46641;48.904;9.126;2023-12-20T05:19:31;1.30;;;1.20;;
60819;SDS011;46641;48.904;9.126;2023-12-20T05:24:25;1.23;;;1.23;;
60819;SDS011;46641;48.904;9.126;2023-12-20T05:29:15;1.43;;;1.33;;
60819;SDS011;46641;48.904;9.126;2023-12-20T05:34:05;1.90;;;1.80;;
60819;SDS011;46641;48.904;9.126;2023-12-20T05:38:56;1.77;;;1.60;;
60819;SDS011;46641;48.904;9.126;2023-12-20T05:43:46;2.38;;;2.28;;
60819;SDS011;46641;48.904;9.126;2023-12-20T05:48:36;1.48;;;1.38;;
60819;SDS011;46641;48.904;9.126;2023-12-20T05:53:26;1.90;;;1.80;;
60819;SDS011;46641;48.904;9.126;2023-12-20T05:58:17;1.80;;;1.70;;
60819;SDS011;46641;48.904;9.126;2023-12-20T06:03:07;1.50;;;1.40;;
60819;SDS011;46641;48.904;9.126;2023-12-20T06:07:57;1.63;;;1.50;;
60819;SDS011;46641;48.904;9.126;2023-12-20T06:12:51;1.87;;;1.77;;
60819;SDS011;46641;48.904;9.126;2023-12-20T06:17:41;2.03;;;1.93;;
60819;SDS011;46641;48.904;9.126;2023-12-20T06:22:32;2.90;;;1.70;;
60819;SDS011;46641;48.904;9.126;2023-12-20T06:27:22;2.40;;;2.20;;
60819;SDS011;46641;48.904;9.126;2023-12-20T06:32:12;2.17;;;2.00;;
60819;SDS011;46641;48.904;9.126;2023-12-20T06:37:03;2.87;;;2.67;;
60819;SDS011;46641;48.904;9.126;2023-12-20T06:41:53;2.30;;;2.20;;
60819;SDS011;46641;48.904;9.126;2023-12-20T06:46:43;2.90;;;2.70;;
60819;SDS011;46641;48.904;9.126;2023-12-20T06:51:34;2.80;;;2.60;;
60819;SDS011;46641;48.904;9.126;2023-12-20T06:56:24;3.27;;;2.67;;
60819;SDS011;46641;48.904;9.126;2023-12-20T07:01:14;2.97;;;2.77;;
60819;SDS011;46641;48.904;9.126;2023-12-20T07:06:06;3.03;;;2.83;;
60819;SDS011;46641;48.904;9.126;2023-12-20T07:10:56;3.03;;;2.83;;
60819;SDS011;46641;48.904;9.126;2023-12-20T07:15:46;3.37;;;3.17;;
60819;SDS011;46641;48.904;9.126;2023-12-20T07:20:37;4.17;;;3.87;;
60819;SDS011;46641;48.904;9.126;2023-12-20T07:25:27;3.20;;;3.00;;
60819;SDS011;46641;48.904;9.126;2023-12-20T07:30:17;3.08;;;2.88;;
60819;SDS011;46641;48.904;9.126;2023-12-20T07:35:08;3.30;;;3.10;;
60819;SDS011;46641;48.904;9.126;2023-12-20T07:39:58;3.27;;;3.03;;
60819;SDS011;46641;48.904;9.126;2023-12-20T07:44:49;3.30;;;3.00;;
60819;SDS011;46641;48.904;9.126;2023-12-20T07:49:39;3.40;;;3.10;;
60819;SDS011;46641;48.904;9.126;2023-12-20T07:54:29;3.35;;;3.15;;
60819;SDS011;46641;48.904;9.126;2023-12-20T07:59:19;3.43;;;3.07;;
60819;SDS011;46641;48.904;9.126;2023-12-20T08:04:10;2.93;;;2.63;;
60819;SDS011;46641;48.904;9.126;2023-12-20T08:09:00;3.25;;;2.95;;
60819;SDS011;46641;48.904;9.126;2023-12-20T08:13:50;2.80;;;2.60;;
60819;SDS011;46641;48.904;9.126;2023-12-20T08:18:41;3.43;;;2.57;;
60819;SDS011;46641;48.904;9.126;2023-12-20T08:23:31;3.10;;;2.80;;
60819;SDS011;46641;48.904;9.126;2023-12-20T08:28:22;4.20;;;3.00;;
60819;SDS011;46641;48.904;9.126;2023-12-20T08:33:13;3.07;;;2.87;;
60819;SDS011;46641;48.904;9.126;2023-12-20T08:38:03;3.78;;;3.20;;
60819;SDS011;46641;48.904;9.126;2023-12-20T08:42:54;3.50;;;2.80;;
60819;SDS011;46641;48.904;9.126;2023-12-20T08:47:45;3.30;;;2.97;;
60819;SDS011;46641;48.904;9.126;2023-12-20T08:52:35;3.47;;;3.00;;
60819;SDS011;46641;48.904;9.126;2023-12-20T08:57:26;4.10;;;3.45;;
60819;SDS011;46641;48.904;9.126;2023-12-20T09:02:16;3.77;;;3.10;;
60819;SDS011;46641;48.904;9.126;2023-12-20T09:07:07;3.10;;;2.80;;
60819;SDS011;46641;48.904;9.126;2023-12-20T09:12:11;2.67;;;2.47;;
60819;SDS011;46641;48.904;9.126;2023-12-20T09:17:02;4.30;;;2.93;;
60819;SDS011;46641;48.904;9.126;2023-12-20T09:21:53;5.00;;;3.23;;
60819;SDS011;46641;48.904;9.126;2023-12-20T09:26:43;3.28;;;2.33;;
60819;SDS011;46641;48.904;9.126;2023-12-20T09:31:35;2.53;;;2.33;;
60819;SDS011;46641;48.904;9.126;2023-12-20T09:36:26;5.73;;;2.20;;
60819;SDS011;46641;48.904;9.126;2023-12-20T09:41:17;4.37;;;1.80;;
60819;SDS011;46641;48.904;9.126;2023-12-20T09:46:07;3.90;;;1.87;;
60819;SDS011;46641;48.904;9.126;2023-12-20T09:51:02;3.10;;;1.90;;
60819;SDS011;46641;48.904;9.126;2023-12-20T09:55:52;4.00;;;1.90;;
60819;SDS011;46641;48.904;9.126;2023-12-20T10:00:43;5.07;;;1.90;;
60819;SDS011;46641;48.904;9.126;2023-12-20T10:05:33;3.10;;;2.07;;
60819;SDS011;46641;48.904;9.126;2023-12-20T10:10:24;4.13;;;2.40;;
60819;SDS011;46641;48.904;9.126;2023-12-20T10:15:15;2.47;;;1.93;;
60819;SDS011;46641;48.904;9.126;2023-12-20T10:20:05;3.45;;;1.90;;
60819;SDS011;46641;48.904;9.126;2023-12-20T10:24:59;2.70;;;1.77;;
60819;SDS011;46641;48.904;9.126;2023-12-20T10:29:49;3.92;;;2.08;;
60819;SDS011;46641;48.904;9.126;2023-12-20T10:34:40;2.37;;;1.77;;
60819;SDS011;46641;48.904;9.126;2023-12-20T10:39:30;1.73;;;1.50;;
60819;SDS011;46641;48.904;9.126;2023-12-20T10:44:22;2.53;;;1.60;;
60819;SDS011;46641;48.904;9.126;2023-12-20T10:49:12;5.20;;;2.13;;
60819;SDS011;46641;48.904;9.126;2023-12-20T10:54:04;3.30;;;1.60;;
60819;SDS011;46641;48.904;9.126;2023-12-20T10:58:55;3.73;;;1.37;;
60819;SDS011;46641;48.904;9.126;2023-12-20T11:03:52;4.07;;;2.17;;
60819;SDS011;46641;48.904;9.126;2023-12-20T11:08:47;2.40;;;1.73;;
60819;SDS011;46641;48.904;9.126;2023-12-20T11:14:00;3.63;;;1.90;;
60819;SDS011;46641;48.904;9.126;2023-12-20T11:18:53;3.80;;;2.00;;
60819;SDS011;46641;48.904;9.126;2023-12-20T11:23:43;3.47;;;2.00;;
60819;SDS011;46641;48.904;9.126;2023-12-20T11:28:34;4.83;;;2.40;;
60819;SDS011;46641;48.904;9.126;2023-12-20T11:33:25;3.90;;;2.20;;
60819;SDS011;46641;48.904;9.126;2023-12-20T11:38:17;2.73;;;1.90;;
60819;SDS011;46641;48.904;9.126;2023-12-20T11:43:09;4.10;;;2.00;;
60819;SDS011;46641;48.904;9.126;2023-12-20T11:48:00;2.53;;;2.03;;
60819;SDS011;46641;48.904;9.126;2023-12-20T11:52:52;3.10;;;2.13;;
60819;SDS011;46641;48.904;9.126;2023-12-20T11:57:44;2.93;;;2.30;;
60819;SDS011;46641;48.904;9.126;2023-12-20T12:02:37;4.23;;;2.33;;
60819;SDS011;46641;48.904;9.126;2023-12-20T12:07:27;4.37;;;2.20;;
60819;SDS011;46641;48.904;9.126;2023-12-20T12:12:18;4.25;;;2.60;;
60819;SDS011;46641;48.904;9.126;2023-12-20T12:17:13;7.70;;;2.37;;
60819;SDS011;46641;48.904;9.126;2023-12-20T12:22:04;7.57;;;2.70;;
60819;SDS011;46641;48.904;9.126;2023-12-20T12:27:02;5.33;;;2.67;;
60819;SDS011;46641;48.904;9.126;2023-12-20T12:31:53;4.40;;;2.30;;
60819;SDS011;46641;48.904;9.126;2023-12-20T12:36:43;5.25;;;2.42;;
60819;SDS011;46641;48.904;9.126;2023-12-20T12:41:34;4.43;;;2.47;;
60819;SDS011;46641;48.904;9.126;2023-12-20T12:46:25;4.40;;;2.15;;
60819;SDS011;46641;48.904;9.126;2023-12-20T12:51:15;7.17;;;2.00;;
60819;SDS011;46641;48.904;9.126;2023-12-20T12:56:06;4.50;;;2.10;;
60819;SDS011;46641;48.904;9.126;2023-12-20T13:00:56;4.07;;;2.23;;
60819;SDS011;46641;48.904;9.126;2023-12-20T13:05:47;3.38;;;1.58;;
60819;SDS011;46641;48.904;9.126;2023-12-20T13:10:37;4.57;;;1.80;;
60819;SDS011;46641;48.904;9.126;2023-12-20T13:15:28;4.87;;;2.10;;
60819;SDS011;46641;48.904;9.126;2023-12-20T13:20:18;4.43;;;2.05;;
60819;SDS011;46641;48.904;9.126;2023-12-20T13:25:08;5.67;;;2.13;;
60819;SDS011;46641;48.904;9.126;2023-12-20T13:29:59;4.93;;;2.33;;
60819;SDS011;46641;48.904;9.126;2023-12-20T13:34:49;1.90;;;1.70;;
60819;SDS011;46641;48.904;9.126;2023-12-20T13:39:40;2.43;;;2.00;;
60819;SDS011;46641;48.904;9.126;2023-12-20T13:44:31;5.00;;;1.97;;
60819;SDS011;46641;48.904;9.126;2023-12-20T13:49:21;4.47;;;2.27;;
60819;SDS011;46641;48.904;9.126;2023-12-20T13:54:15;6.33;;;2.03;;
60819;SDS011;46641;48.904;9.126;2023-12-20T13:59:06;5.20;;;2.50;;
60819;SDS011;46641;48.904;9.126;2023-12-20T14:03:57;4.43;;;2.00;;
60819;SDS011;46641;48.904;9.126;2023-12-20T14:08:47;4.35;;;1.98;;
60819;SDS011;46641;48.904;9.126;2023-12-20T14:13:38;1.93;;;1.73;;
60819;SDS011;46641;48.904;9.126;2023-12-20T14:18:28;3.72;;;1.80;;
60819;SDS011;46641;48.904;9.126;2023-12-20T14:23:20;2.20;;;1.73;;
60819;SDS011;46641;48.904;9.126;2023-12-20T14:28:11;2.43;;;1.90;;
60819;SDS011;46641;48.904;9.126;2023-12-20T14:33:04;3.10;;;1.80;;
60819;SDS011;46641;48.904;9.126;2023-12-20T14:37:55;4.43;;;1.83;;
60819;SDS011;46641;48.904;9.126;2023-12-20T14:42:45;3.50;;;1.73;;
60819;SDS011;46641;48.904;9.126;2023-12-20T14:47:35;3.17;;;2.20;;
60819;SDS011;46641;48.904;9.126;2023-12-20T14:52:26;1.60;;;1.50;;
60819;SDS011;46641;48.904;9.126;2023-12-20T14:57:16;4.40;;;1.98;;
60819;SDS011;46641;48.904;9.126;2023-12-20T15:02:08;5.00;;;1.80;;
60819;SDS011;46641;48.904;9.126;2023-12-20T15:06:58;3.17;;;1.75;;
60819;SDS011;46641;48.904;9.126;2023-12-20T15:11:48;3.27;;;1.80;;
60819;SDS011;46641;48.904;9.126;2023-12-20T15:16:38;4.25;;;1.90;;
60819;SDS011;46641;48.904;9.126;2023-12-20T15:21:29;3.53;;;2.10;;
60819;SDS011;46641;48.904;9.126;2023-12-20T15:26:22;4.30;;;2.07;;
60819;SDS011;46641;48.904;9.126;2023-12-20T15:31:13;4.30;;;2.43;;
60819;SDS011;46641;48.904;9.126;2023-12-20T15:36:03;5.63;;;2.50;;
60819;SDS011;46641;48.904;9.126;2023-12-20T15:40:54;5.63;;;2.30;;
60819;SDS011;46641;48.904;9.126;2023-12-20T15:45:45;6.37;;;2.07;;
60819;SDS011;46641;48.904;9.126;2023-12-20T15:50:36;1.90;;;1.77;;
60819;SDS011;46641;48.904;9.126;2023-12-20T15:55:26;2.60;;;2.00;;
60819;SDS011;46641;48.904;9.126;2023-12-20T16:00:17;2.60;;;1.73;;
60819;SDS011;46641;48.904;9.126;2023-12-20T16:05:07;1.93;;;1.47;;
60819;SDS011;46641;48.904;9.126;2023-12-20T16:09:57;1.97;;;1.70;;
60819;SDS011;46641;48.904;9.126;2023-12-20T16:14:48;3.53;;;1.77;;
60819;SDS011;46641;48.904;9.126;2023-12-20T16:19:38;4.03;;;1.50;;
60819;SDS011;46641;48.904;9.126;2023-12-20T16:24:28;4.50;;;2.13;;
60819;SDS011;46641;48.904;9.126;2023-12-20T16:29:19;1.77;;;1.40;;
60819;SDS011;46641;48.904;9.126;2023-12-20T16:34:09;1.40;;;1.23;;
60819;SDS011;46641;48.904;9.126;2023-12-20T16:39:00;2.67;;;1.13;;
60819;SDS011;46641;48.904;9.126;2023-12-20T16:43:50;1.47;;;1.37;;
60819;SDS011;46641;48.904;9.126;2023-12-20T16:48:40;3.30;;;1.50;;
60819;SDS011;46641;48.904;9.126;2023-12-20T16:53:30;1.48;;;1.38;;
60819;SDS011;46641;48.904;9.126;2023-12-20T16:58:21;1.50;;;1.40;;
60819;SDS011;46641;48.904;9.126;2023-12-20T17:03:12;2.20;;;1.38;;
60819;SDS011;46641;48.904;9.126;2023-12-20T17:08:02;1.70;;;1.17;;
60819;SDS011;46641;48.904;9.126;2023-12-20T17:12:52;1.53;;;1.43;;
60819;SDS011;46641;48.904;9.126;2023-12-20T17:17:43;1.50;;;1.40;;
60819;SDS011;46641;48.904;9.126;2023-12-20T17:22:33;3.17;;;1.30;;
60819;SDS011;46641;48.904;9.126;2023-12-20T17:27:23;2.23;;;1.03;;
60819;SDS011;46641;48.904;9.126;2023-12-20T17:32:14;1.97;;;1.13;;
60819;SDS011;46641;48.904;9.126;2023-12-20T17:37:04;1.57;;;1.47;;
60819;SDS011;46641;48.904;9.126;2023-12-20T17:41:54;1.50;;;1.40;;
60819;SDS011;46641;48.904;9.126;2023-12-20T17:46:44;1.60;;;1.50;;
60819;SDS011;46641;48.904;9.126;2023-12-20T17:51:36;1.23;;;1.13;;
60819;SDS011;46641;48.904;9.126;2023-12-20T17:56:27;2.23;;;1.40;;
60819;SDS011;46641;48.904;9.126;2023-12-20T18:01:19;1.85;;;1.35;;
60819;SDS011;46641;48.904;9.126;2023-12-20T18:06:09;3.20;;;2.30;;
60819;SDS011;46641;48.904;9.126;2023-12-20T18:11:00;3.03;;;1.50;;
60819;SDS011;46641;48.904;9.126;2023-12-20T18:15:50;2.20;;;1.50;;
60819;SDS011;46641;48.904;9.126;2023-12-20T18:20:40;1.48;;;1.38;;
60819;SDS011;46641;48.904;9.126;2023-12-20T18:25:31;3.50;;;1.50;;
60819;SDS011;46641;48.904;9.126;2023-12-20T18:30:21;1.45;;;1.35;;
60819;SDS011;46641;48.904;9.126;2023-12-20T18:35:12;1.90;;;1.50;;
60819;SDS011;46641;48.904;9.126;2023-12-20T18:40:02;3.20;;;2.30;;
60819;SDS011;46641;48.904;9.126;2023-12-20T18:44:53;2.30;;;1.97;;
60819;SDS011;46641;48.904;9.126;2023-12-20T18:49:45;1.63;;;1.27;;
60819;SDS011;46641;48.904;9.126;2023-12-20T18:54:35;2.23;;;2.03;;
60819;SDS011;46641;48.904;9.126;2023-12-20T18:59:26;3.27;;;1.30;;
60819;SDS011;46641;48.904;9.126;2023-12-20T19:04:17;1.43;;;1.17;;
60819;SDS011;46641;48.904;9.126;2023-12-20T19:09:07;1.37;;;1.27;;
60819;SDS011;46641;48.904;9.126;2023-12-20T19:14:04;1.50;;;1.40;;
60819;SDS011;46641;48.904;9.126;2023-12-20T19:18:55;1.70;;;1.23;;
60819;SDS011;46641;48.904;9.126;2023-12-20T19:23:45;2.10;;;1.10;;
60819;SDS011;46641;48.904;9.126;2023-12-20T19:28:35;1.30;;;1.20;;
60819;SDS011;46641;48.904;9.126;2023-12-20T19:33:26;1.00;;;0.80;;
60819;SDS011;46641;48.904;9.126;2023-12-20T19:38:18;1.57;;;1.30;;
60819;SDS011;46641;48.904;9.126;2023-12-20T19:43:08;0.95;;;0.95;;
60819;SDS011;46641;48.904;9.126;2023-12-20T19:47:58;1.50;;;1.40;;
60819;SDS011;46641;48.904;9.126;2023-12-20T19:52:49;1.25;;;1.15;;
60819;SDS011;46641;48.904;9.126;2023-12-20T19:57:39;0.90;;;0.90;;
60819;SDS011;46641;48.904;9.126;2023-12-20T20:02:29;1.42;;;1.25;;
60819;SDS011;46641;48.904;9.126;2023-12-20T20:07:20;2.13;;;0.97;;
60819;SDS011;46641;48.904;9.126;2023-12-20T20:12:13;1.23;;;1.13;;
60819;SDS011;46641;48.904;9.126;2023-12-20T20:17:03;1.70;;;1.25;;
60819;SDS011;46641;48.904;9.126;2023-12-20T20:21:54;1.60;;;1.17;;
60819;SDS011;46641;48.904;9.126;2023-12-20T20:26:45;1.80;;;1.40;;
60819;SDS011;46641;48.904;9.126;2023-12-20T20:31:35;1.10;;;1.00;;
60819;SDS011;46641;48.904;9.126;2023-12-20T20:36:26;1.20;;;0.90;;
60819;SDS011;46641;48.904;9.126;2023-12-20T20:41:16;1.63;;;1.17;;
60819;SDS011;46641;48.904;9.126;2023-12-20T20:46:06;1.00;;;1.00;;
60819;SDS011;46641;48.904;9.126;2023-12-20T20:50:57;1.93;;;1.00;;
60819;SDS011;46641;48.904;9.126;2023-12-20T20:55:48;1.10;;;1.00;;
60819;SDS011;46641;48.904;9.126;2023-12-20T21:00:38;1.42;;;0.93;;
60819;SDS011;46641;48.904;9.126;2023-12-20T21:05:29;0.73;;;0.73;;
60819;SDS011;46641;48.904;9.126;2023-12-20T21:10:19;1.20;;;1.10;;
60819;SDS011;46641;48.904;9.126;2023-12-20T21:15:10;1.50;;;0.93;;
60819;SDS011;46641;48.904;9.126;2023-12-20T21:20:04;0.90;;;0.80;;
60819;SDS011;46641;48.904;9.126;2023-12-20T21:24:55;0.83;;;0.83;;
60819;SDS011;46641;48.904;9.126;2023-12-20T21:29:45;0.63;;;0.63;;
60819;SDS011;46641;48.904;9.126;2023-12-20T21:34:35;0.95;;;0.80;;
60819;SDS011;46641;48.904;9.126;2023-12-20T21:39:26;0.63;;;0.63;;
60819;SDS011;46641;48.904;9.126;2023-12-20T21:44:17;0.67;;;0.67;;
60819;SDS011;46641;48.904;9.126;2023-12-20T21:49:07;1.03;;;0.93;;
60819;SDS011;46641;48.904;9.126;2023-12-20T21:53:57;2.07;;;0.90;;
60819;SDS011;46641;48.904;9.126;2023-12-20T21:58:52;0.63;;;0.63;;
60819;SDS011;46641;48.904;9.126;2023-12-20T22:03:43;0.90;;;0.90;;
60819;SDS011;46641;48.904;9.126;2023-12-20T22:08:33;1.20;;;1.10;;
60819;SDS011;46641;48.904;9.126;2023-12-20T22:13:23;0.75;;;0.75;;
60819;SDS011;46641;48.904;9.126;2023-12-20T22:18:14;1.73;;;0.90;;
60819;SDS011;46641;48.904;9.126;2023-12-20T22:23:04;1.07;;;0.70;;
60819;SDS011;46641;48.904;9.126;2023-12-20T22:27:55;1.07;;;0.73;;
60819;SDS011;46641;48.904;9.126;2023-12-20T22:32:45;1.10;;;1.10;;
60819;SDS011;46641;48.904;9.126;2023-12-20T22:37:36;0.90;;;0.90;;
60819;SDS011;46641;48.904;9.126;2023-12-20T22:42:26;0.60;;;0.60;;
60819;SDS011;46641;48.904;9.126;2023-12-20T22:47:17;2.23;;;0.90;;
60819;SDS011;46641;48.904;9.126;2023-12-20T22:52:07;0.57;;;0.57;;
60819;SDS011;46641;48.904;9.126;2023-12-20T22:56:57;0.80;;;0.80;;
60819;SDS011;46641;48.904;9.126;2023-12-20T23:01:47;1.50;;;0.47;;
60819;SDS011;46641;48.904;9.126;2023-12-20T23:06:38;0.80;;;0.80;;
60819;SDS011;46641;48.904;9.126;2023-12-20T23:11:28;0.73;;;0.57;;
60819;SDS011;46641;48.904;9.126;2023-12-20T23:16:19;0.87;;;0.57;;
60819;SDS011;46641;48.904;9.126;2023-12-20T23:21:09;0.83;;;0.83;;
60819;SDS011;46641;48.904;9.126;2023-12-20T23:26:00;0.87;;;0.70;;
60819;SDS011;46641;48.904;9.126;2023-12-20T23:30:51;0.80;;;0.70;;
60819;SDS011;46641;48.904;9.126;2023-12-20T23:35:41;0.70;;;0.70;;
60819;SDS011;46641;48.904;9.126;2023-12-20T23:40:31;0.43;;;0.30;;
60819;SDS011;46641;48.904;9.126;2023-12-20T23:45:21;0.77;;;0.77;;
60819;SDS011;46641;48.904;9.126;2023-12-20T23:50:12;1.45;;;0.68;;
60819;SDS011;46641;48.904;9.126;2023-12-20T23:55:02;0.60;;;0.60;;
60819;SDS011;46641;48.904;9.126;2023-12-20T23:59:53;1.63;;;0.50;;
